createdAt,value
2017-09-28T00:00:43.883Z,33.83
2017-09-28T00:03:12.228Z,36.80
2017-09-28T00:05:41.287Z,27.10
2017-09-28T00:08:10.339Z,23.57
2017-09-28T00:10:38.676Z,23.37
2017-09-28T00:13:06.969Z,22.77
2017-09-28T00:15:35.254Z,23.80
2017-09-28T00:18:04.737Z,23.67
2017-09-28T00:20:34.370Z,25.27
2017-09-28T00:23:02.934Z,24.50
2017-09-28T00:25:31.299Z,27.50
2017-09-28T00:27:59.591Z,26.17
2017-09-28T00:30:27.872Z,26.30
2017-09-28T00:32:56.216Z,26.83
2017-09-28T00:35:24.499Z,24.40
2017-09-28T00:37:54.301Z,24.47
2017-09-28T00:40:22.625Z,23.00
2017-09-28T00:42:50.915Z,24.83
2017-09-28T00:45:20.559Z,26.60
2017-09-28T00:47:49.159Z,28.17
2017-09-28T00:50:18.207Z,26.87
2017-09-28T00:52:47.855Z,27.47
2017-09-28T00:55:17.160Z,26.00
2017-09-28T00:57:46.589Z,28.53
2017-09-28T01:00:14.867Z,28.77
2017-09-28T01:02:43.210Z,35.90
2017-09-28T01:05:11.495Z,37.33
2017-09-28T01:07:39.787Z,32.10
2017-09-28T01:10:09.286Z,29.10
2017-09-28T01:12:38.336Z,28.00
2017-09-28T01:15:07.760Z,28.43
2017-09-28T01:17:36.492Z,28.97
2017-09-28T01:20:06.282Z,27.37
2017-09-28T01:22:34.573Z,32.10
2017-09-28T01:25:03.823Z,29.40
2017-09-28T01:27:32.871Z,33.40
2017-09-28T01:30:01.164Z,34.43
2017-09-28T01:32:30.603Z,35.57
2017-09-28T01:35:00.247Z,35.93
2017-09-28T01:37:28.414Z,33.23
2017-09-28T01:39:57.117Z,33.80
2017-09-28T01:42:26.543Z,32.20
2017-09-28T01:44:54.823Z,34.50
2017-09-28T01:47:23.944Z,36.73
2017-09-28T01:49:52.994Z,33.20
2017-09-28T01:52:21.277Z,34.23
2017-09-28T01:54:49.635Z,36.37
2017-09-28T01:57:17.930Z,40.27
2017-09-28T01:59:46.224Z,38.60
2017-09-28T02:02:14.564Z,34.20
2017-09-28T02:04:43.619Z,28.87
2017-09-28T02:07:12.679Z,29.60
2017-09-28T02:09:42.364Z,30.70
2017-09-28T02:12:11.655Z,35.50
2017-09-28T02:14:40.334Z,31.00
2017-09-28T02:17:08.666Z,33.67
2017-09-28T02:19:38.096Z,34.27
2017-09-28T02:22:07.148Z,35.07
2017-09-28T02:24:37.001Z,37.13
2017-09-28T02:27:05.287Z,35.10
2017-09-28T02:29:33.574Z,38.30
2017-09-28T02:32:03.064Z,37.13
2017-09-28T02:34:31.343Z,36.90
2017-09-28T02:36:59.626Z,34.50
2017-09-28T02:39:29.475Z,33.80
2017-09-28T02:41:57.757Z,33.53
2017-09-28T02:44:26.052Z,30.37
2017-09-28T02:46:54.378Z,30.10
2017-09-28T02:49:23.439Z,30.87
2017-09-28T02:51:51.727Z,29.63
2017-09-28T02:54:21.424Z,31.43
2017-09-28T02:56:49.586Z,30.47
2017-09-28T02:59:18.635Z,31.70
2017-09-28T03:01:48.122Z,31.07
2017-09-28T03:04:16.423Z,31.50
2017-09-28T03:06:46.215Z,32.73
2017-09-28T03:09:15.910Z,33.30
2017-09-28T03:11:44.474Z,33.67
2017-09-28T03:14:13.545Z,31.23
2017-09-28T03:16:43.114Z,34.30
2017-09-28T03:19:11.415Z,35.13
2017-09-28T03:21:41.063Z,33.63
2017-09-28T03:24:10.449Z,37.70
2017-09-28T03:26:39.258Z,33.53
2017-09-28T03:29:08.888Z,33.13
2017-09-28T03:31:37.669Z,36.97
2017-09-28T03:34:06.791Z,33.53
2017-09-28T03:36:35.469Z,34.30
2017-09-28T03:39:03.911Z,34.60
2017-09-28T03:41:32.218Z,33.10
2017-09-28T03:44:02.031Z,29.83
2017-09-28T03:46:30.363Z,35.27
2017-09-28T03:49:00.327Z,37.40
2017-09-28T03:51:29.597Z,40.50
2017-09-28T03:53:59.060Z,36.53
2017-09-28T03:56:27.466Z,39.93
2017-09-28T03:58:55.755Z,36.93
2017-09-28T04:01:24.981Z,33.63
2017-09-28T04:03:53.287Z,31.90
2017-09-28T04:06:21.626Z,31.57
2017-09-28T04:08:49.979Z,34.17
2017-09-28T04:11:18.283Z,40.50
2017-09-28T04:13:47.361Z,43.03
2017-09-28T04:16:15.971Z,30.80
2017-09-28T04:18:45.719Z,34.50
2017-09-28T04:21:15.261Z,33.30
2017-09-28T04:23:43.859Z,30.53
2017-09-28T04:26:12.176Z,32.63
2017-09-28T04:28:42.052Z,33.40
2017-09-28T04:31:10.406Z,34.23
2017-09-28T04:33:39.499Z,42.67
2017-09-28T04:36:09.085Z,34.27
2017-09-28T04:38:38.511Z,47.93
2017-09-28T04:41:06.796Z,44.47
2017-09-28T04:43:35.431Z,41.30
2017-09-28T04:46:05.288Z,44.90
2017-09-28T04:48:33.568Z,35.20
2017-09-28T04:51:01.915Z,34.43
2017-09-28T04:53:30.208Z,35.27
2017-09-28T04:55:59.272Z,34.30
2017-09-28T04:58:29.118Z,35.03
2017-09-28T05:00:57.412Z,40.73
2017-09-28T05:03:26.092Z,41.77
2017-09-28T05:05:54.430Z,45.10
2017-09-28T05:08:23.856Z,40.73
2017-09-28T05:10:52.135Z,37.53
2017-09-28T05:13:21.226Z,36.70
2017-09-28T05:15:50.286Z,37.00
2017-09-28T05:18:19.340Z,35.40
2017-09-28T05:20:48.807Z,37.47
2017-09-28T05:23:17.104Z,34.83
2017-09-28T05:25:45.446Z,31.43
2017-09-28T05:28:13.788Z,34.77
2017-09-28T05:30:42.840Z,35.93
2017-09-28T05:33:11.891Z,38.50
2017-09-28T05:35:40.987Z,45.63
2017-09-28T05:38:10.623Z,40.73
2017-09-28T05:40:39.555Z,34.83
2017-09-28T05:43:09.398Z,35.70
2017-09-28T05:45:37.683Z,35.20
2017-09-28T05:48:05.976Z,34.07
2017-09-28T05:50:35.662Z,36.87
2017-09-28T05:53:03.844Z,41.13
2017-09-28T05:55:32.135Z,34.30
2017-09-28T05:58:00.726Z,32.40
2017-09-28T06:00:29.123Z,33.13
2017-09-28T06:02:58.775Z,31.53
2017-09-28T06:05:27.312Z,32.60
2017-09-28T06:07:55.634Z,33.17
2017-09-28T06:10:24.314Z,45.33
2017-09-28T06:12:53.775Z,43.67
2017-09-28T06:15:23.419Z,42.10
2017-09-28T06:17:52.008Z,34.90
2017-09-28T06:20:21.128Z,34.90
2017-09-28T06:22:50.951Z,34.17
2017-09-28T06:25:19.287Z,41.10
2017-09-28T06:27:47.838Z,37.80
2017-09-28T06:30:16.128Z,34.73
2017-09-28T06:32:45.703Z,29.90
2017-09-28T06:35:14.255Z,30.00
2017-09-28T06:37:43.679Z,33.13
2017-09-28T06:40:11.971Z,33.53
2017-09-28T06:42:40.361Z,33.57
2017-09-28T06:45:08.652Z,34.30
2017-09-28T06:47:36.978Z,33.63
2017-09-28T06:50:05.332Z,32.17
2017-09-28T06:52:35.123Z,33.07
2017-09-28T06:55:03.414Z,32.77
2017-09-28T06:57:31.741Z,29.60
2017-09-28T07:00:00.085Z,31.20
2017-09-28T07:02:29.230Z,33.20
2017-09-28T07:04:57.598Z,34.63
2017-09-28T07:07:27.047Z,33.83
2017-09-28T07:09:55.734Z,30.27
2017-09-28T07:12:24.366Z,28.50
2017-09-28T07:14:53.428Z,26.33
2017-09-28T07:17:22.480Z,24.77
2017-09-28T07:19:51.086Z,26.77
2017-09-28T07:22:19.872Z,26.40
2017-09-28T07:24:48.159Z,26.70
2017-09-28T07:27:16.614Z,23.93
2017-09-28T07:29:44.935Z,25.90
2017-09-28T07:32:14.703Z,27.50
2017-09-28T07:34:43.672Z,28.10
2017-09-28T07:37:12.368Z,29.10
2017-09-28T07:39:40.704Z,28.27
2017-09-28T07:42:10.956Z,29.10
2017-09-28T07:44:40.757Z,28.57
2017-09-28T07:47:10.435Z,29.17
2017-09-28T07:49:39.000Z,27.17
2017-09-28T07:52:07.301Z,28.77
2017-09-28T07:54:35.647Z,27.90
2017-09-28T07:57:03.939Z,32.20
2017-09-28T07:59:32.226Z,32.37
2017-09-28T08:02:00.570Z,34.13
2017-09-28T08:04:29.997Z,30.37
2017-09-28T08:06:58.296Z,29.40
2017-09-28T08:09:26.652Z,34.40
2017-09-28T08:11:56.295Z,30.43
2017-09-28T08:14:24.899Z,32.50
2017-09-28T08:16:54.582Z,31.03
2017-09-28T08:19:23.521Z,30.23
2017-09-28T08:21:52.592Z,32.00
2017-09-28T08:24:22.282Z,30.77
2017-09-28T08:26:50.861Z,32.00
2017-09-28T08:29:19.159Z,33.23
2017-09-28T08:31:47.495Z,37.40
2017-09-28T08:34:15.805Z,44.50
2017-09-28T08:36:44.107Z,36.97
2017-09-28T08:39:12.464Z,38.17
2017-09-28T08:41:41.521Z,37.03
2017-09-28T08:44:09.826Z,33.17
2017-09-28T08:46:38.168Z,36.67
2017-09-28T08:49:06.471Z,36.47
2017-09-28T08:51:34.771Z,40.70
2017-09-28T08:54:03.109Z,37.00
2017-09-28T08:56:32.920Z,36.33
2017-09-28T08:59:01.977Z,33.67
2017-09-28T09:01:30.334Z,34.97
2017-09-28T09:03:59.387Z,32.57
2017-09-28T09:06:28.823Z,33.13
2017-09-28T09:08:58.671Z,35.83
2017-09-28T09:11:26.974Z,33.30
2017-09-28T09:13:56.632Z,33.30
2017-09-28T09:16:25.259Z,34.47
2017-09-28T09:18:53.553Z,32.80
2017-09-28T09:21:21.868Z,33.70
2017-09-28T09:23:51.352Z,30.57
2017-09-28T09:26:19.832Z,32.03
2017-09-28T09:28:48.223Z,30.17
2017-09-28T09:31:18.457Z,27.80
2017-09-28T09:33:48.284Z,29.47
2017-09-28T09:36:16.658Z,29.03
2017-09-28T09:38:45.043Z,27.97
2017-09-28T09:41:14.098Z,29.20
2017-09-28T09:43:43.758Z,27.33
2017-09-28T09:46:12.464Z,28.20
2017-09-28T09:48:40.785Z,24.90
2017-09-28T09:51:09.143Z,23.87
2017-09-28T09:53:37.603Z,24.67
2017-09-28T09:56:06.656Z,26.50
2017-09-28T09:58:34.957Z,22.53
2017-09-28T10:01:03.353Z,23.93
2017-09-28T10:03:31.715Z,24.27
2017-09-28T10:06:00.068Z,22.73
2017-09-28T10:08:35.181Z,23.57
2017-09-28T10:11:08.030Z,22.97
2017-09-28T10:13:39.936Z,19.93
2017-09-28T10:16:15.180Z,22.37
2017-09-28T10:18:43.962Z,22.73
2017-09-28T10:21:13.621Z,22.37
2017-09-28T10:23:41.906Z,19.63
2017-09-28T10:26:10.918Z,21.53
2017-09-28T10:28:39.672Z,22.53
2017-09-28T10:31:09.326Z,20.93
2017-09-28T10:33:39.778Z,24.83
2017-09-28T10:36:08.076Z,22.37
2017-09-28T10:38:36.424Z,25.00
2017-09-28T10:41:04.779Z,21.50
2017-09-28T10:43:33.120Z,23.40
2017-09-28T10:46:01.826Z,21.57
2017-09-28T10:48:30.452Z,21.73
2017-09-28T10:50:59.556Z,24.13
2017-09-28T10:53:27.854Z,23.87
2017-09-28T10:55:56.812Z,23.30
2017-09-28T10:58:25.134Z,22.23
2017-09-28T11:00:53.463Z,22.97
2017-09-28T11:03:21.861Z,24.57
2017-09-28T11:05:51.084Z,23.50
2017-09-28T11:08:19.778Z,23.20
2017-09-28T11:10:48.608Z,23.03
2017-09-28T11:13:18.040Z,21.70
2017-09-28T11:15:46.328Z,21.70
2017-09-28T11:18:14.659Z,23.13
2017-09-28T11:20:42.951Z,22.77
2017-09-28T11:23:11.248Z,24.20
2017-09-28T11:25:39.614Z,19.77
2017-09-28T11:28:09.032Z,23.00
2017-09-28T11:30:38.089Z,24.40
2017-09-28T11:33:07.559Z,26.97
2017-09-28T11:35:35.847Z,26.20
2017-09-28T11:38:04.136Z,21.00
2017-09-28T11:40:33.979Z,20.60
2017-09-28T11:43:02.323Z,21.00
2017-09-28T11:45:30.670Z,23.23
2017-09-28T11:47:59.810Z,19.10
2017-09-28T11:50:28.902Z,18.70
2017-09-28T11:52:58.542Z,28.57
2017-09-28T11:55:27.932Z,23.13
2017-09-28T11:57:56.230Z,18.73
2017-09-28T12:00:24.604Z,23.50
2017-09-28T12:02:54.619Z,18.63
2017-09-28T12:05:22.911Z,18.33
2017-09-28T12:07:51.346Z,18.00
2017-09-28T12:10:20.870Z,19.60
2017-09-28T12:12:49.295Z,17.77
2017-09-28T12:15:17.747Z,15.13
2017-09-28T12:17:46.079Z,15.97
2017-09-28T12:20:15.927Z,17.17
2017-09-28T12:22:44.247Z,16.23
2017-09-28T12:25:12.633Z,16.20
2017-09-28T12:27:41.727Z,15.87
2017-09-28T12:30:11.524Z,14.77
2017-09-28T12:32:39.912Z,15.70
2017-09-28T12:35:09.554Z,15.63
2017-09-28T12:37:37.717Z,15.63
2017-09-28T12:40:06.063Z,15.63
2017-09-28T12:42:34.357Z,15.10
2017-09-28T12:45:02.643Z,15.20
2017-09-28T12:47:31.744Z,11.40
2017-09-28T12:50:00.523Z,13.23
2017-09-28T12:52:29.231Z,13.90
2017-09-28T12:54:57.751Z,14.10
2017-09-28T12:57:27.397Z,14.10
2017-09-28T12:59:55.617Z,16.87
2017-09-28T13:02:24.007Z,12.40
2017-09-28T13:04:52.319Z,13.30
2017-09-28T13:07:22.119Z,14.70
2017-09-28T13:09:51.340Z,13.17
2017-09-28T13:12:20.791Z,14.90
2017-09-28T13:14:49.532Z,12.90
2017-09-28T13:17:17.895Z,15.10
2017-09-28T13:19:46.192Z,14.80
2017-09-28T13:22:15.943Z,13.80
2017-09-28T13:24:44.920Z,13.10
2017-09-28T13:27:14.044Z,12.10
2017-09-28T13:29:42.384Z,12.07
2017-09-28T13:32:10.727Z,12.80
2017-09-28T13:34:39.058Z,12.80
2017-09-28T13:37:07.400Z,12.10
2017-09-28T13:39:37.099Z,12.00
2017-09-28T13:42:06.036Z,11.70
2017-09-28T13:44:35.511Z,12.33
2017-09-28T13:47:03.854Z,12.17
2017-09-28T13:49:33.284Z,13.60
2017-09-28T13:52:03.139Z,13.40
2017-09-28T13:54:32.879Z,13.10
2017-09-28T13:57:01.960Z,13.17
2017-09-28T13:59:31.858Z,12.50
2017-09-28T14:02:01.364Z,14.10
2017-09-28T14:04:30.423Z,11.30
2017-09-28T14:06:58.758Z,10.37
2017-09-28T14:09:27.396Z,10.80
2017-09-28T14:11:56.455Z,10.97
2017-09-28T14:14:24.782Z,11.33
2017-09-28T14:16:53.128Z,12.47
2017-09-28T14:19:21.419Z,12.90
2017-09-28T14:21:49.783Z,11.23
2017-09-28T14:24:19.458Z,9.43
2017-09-28T14:26:47.736Z,13.47
2017-09-28T14:29:16.856Z,11.47
2017-09-28T14:31:45.241Z,18.00
2017-09-28T14:34:14.314Z,11.33
2017-09-28T14:36:42.608Z,10.17
2017-09-28T14:39:11.451Z,9.53
2017-09-28T14:41:39.743Z,11.30
2017-09-28T14:44:09.247Z,11.30
2017-09-28T14:46:37.607Z,10.37
2017-09-28T14:49:06.292Z,11.00
2017-09-28T14:51:34.577Z,12.50
2017-09-28T14:54:04.271Z,12.70
2017-09-28T14:59:28.563Z,9.47
2017-09-28T15:01:56.843Z,8.40
2017-09-28T15:04:25.132Z,9.77
2017-09-28T15:06:54.723Z,9.13
2017-09-28T15:09:23.444Z,9.17
2017-09-28T15:11:51.780Z,8.13
2017-09-28T15:14:20.243Z,11.93
2017-09-28T15:16:48.932Z,11.53
2017-09-28T15:19:17.230Z,9.40
2017-09-28T15:21:45.611Z,10.40
2017-09-28T15:24:15.495Z,9.67
2017-09-28T15:26:45.179Z,9.27
2017-09-28T15:29:13.731Z,8.30
2017-09-28T15:31:42.196Z,7.60
2017-09-28T15:34:10.573Z,7.90
2017-09-28T15:36:38.943Z,6.90
2017-09-28T15:39:07.241Z,8.30
2017-09-28T15:41:37.060Z,8.10
2017-09-28T15:44:06.858Z,9.07
2017-09-28T15:46:36.498Z,7.63
2017-09-28T15:49:05.102Z,16.87
2017-09-28T15:51:33.407Z,10.70
2017-09-28T15:54:03.089Z,8.23
2017-09-28T15:56:31.876Z,8.37
2017-09-28T15:59:00.979Z,8.23
2017-09-28T16:01:29.264Z,7.37
2017-09-28T16:03:58.955Z,8.00
2017-09-28T16:06:27.174Z,8.07
2017-09-28T16:08:55.448Z,8.90
2017-09-28T16:11:23.778Z,7.60
2017-09-28T16:13:52.063Z,8.50
2017-09-28T16:16:20.410Z,7.93
2017-09-28T16:18:48.776Z,6.97
2017-09-28T16:21:17.110Z,6.93
2017-09-28T16:23:46.551Z,7.40
2017-09-28T16:26:14.923Z,7.40
2017-09-28T16:28:43.393Z,7.53
2017-09-28T16:31:12.448Z,7.10
2017-09-28T16:33:41.723Z,7.43
2017-09-28T16:36:10.992Z,7.80
2017-09-28T16:38:39.679Z,12.23
2017-09-28T16:41:08.047Z,9.50
2017-09-28T16:43:37.199Z,7.63
2017-09-28T16:46:06.834Z,7.87
2017-09-28T16:48:36.496Z,8.10
2017-09-28T16:51:05.183Z,8.20
2017-09-28T16:53:33.499Z,9.17
2017-09-28T16:56:01.871Z,8.37
2017-09-28T16:58:30.167Z,10.30
2017-09-28T17:00:58.454Z,10.93
2017-09-28T17:03:28.287Z,9.93
2017-09-28T17:05:56.599Z,9.40
2017-09-28T17:08:24.916Z,8.97
2017-09-28T17:10:53.243Z,11.20
2017-09-28T17:13:21.667Z,12.07
2017-09-28T17:15:50.355Z,10.40
2017-09-28T17:18:20.082Z,11.73
2017-09-28T17:20:48.683Z,10.80
2017-09-28T17:23:18.350Z,10.70
2017-09-28T17:25:46.967Z,10.00
2017-09-28T17:28:15.384Z,10.57
2017-09-28T17:30:43.696Z,9.00
2017-09-28T17:33:13.956Z,9.20
2017-09-28T17:35:42.139Z,8.70
2017-09-28T17:38:11.558Z,8.27
2017-09-28T17:40:39.986Z,8.20
2017-09-28T17:43:08.346Z,7.80
2017-09-28T17:45:36.643Z,7.77
2017-09-28T17:48:04.983Z,8.33
2017-09-28T17:50:34.447Z,7.27
2017-09-28T17:53:02.755Z,9.17
2017-09-28T17:55:31.195Z,7.67
2017-09-28T17:57:59.511Z,8.47
2017-09-28T18:00:28.553Z,7.50
2017-09-28T18:02:57.904Z,8.27
2017-09-28T18:05:26.583Z,7.67
2017-09-28T18:07:54.863Z,8.37
2017-09-28T18:10:23.210Z,7.80
2017-09-28T18:12:51.572Z,8.90
2017-09-28T18:15:19.872Z,7.67
2017-09-28T18:17:48.232Z,9.70
2017-09-28T18:20:17.278Z,9.30
2017-09-28T18:22:45.562Z,8.50
2017-09-28T18:25:14.278Z,8.63
2017-09-28T18:27:44.113Z,7.33
2017-09-28T18:30:12.426Z,7.23
2017-09-28T18:32:42.099Z,7.80
2017-09-28T18:35:10.653Z,7.97
2017-09-28T18:37:38.966Z,6.70
2017-09-28T18:40:07.356Z,7.27
2017-09-28T18:42:36.987Z,5.93
2017-09-28T18:45:05.542Z,6.10
2017-09-28T18:47:34.711Z,5.80
2017-09-28T18:50:02.980Z,5.03
2017-09-28T18:52:32.027Z,5.67
2017-09-28T18:55:01.080Z,4.70
2017-09-28T18:57:30.875Z,5.93
2017-09-28T18:59:59.919Z,5.83
2017-09-28T19:02:29.398Z,5.20
2017-09-28T19:04:57.794Z,5.10
2017-09-28T19:07:26.065Z,5.30
2017-09-28T19:09:55.999Z,4.70
2017-09-28T19:12:24.671Z,6.30
2017-09-28T19:15:12.458Z,6.00
2017-09-28T19:17:42.012Z,6.23
2017-09-28T19:20:11.060Z,7.17
2017-09-28T19:22:40.178Z,6.20
2017-09-28T19:25:09.871Z,5.70
2017-09-28T19:27:38.469Z,6.40
2017-09-28T19:30:10.648Z,6.50
2017-09-28T19:32:38.926Z,6.50
2017-09-28T19:35:07.233Z,6.07
2017-09-28T19:37:35.610Z,6.10
2017-09-28T19:40:05.018Z,6.73
2017-09-28T19:42:33.296Z,5.73
2017-09-28T19:45:01.624Z,6.57
2017-09-28T19:47:31.424Z,6.30
2017-09-28T19:50:00.473Z,6.77
2017-09-28T19:52:29.936Z,6.33
2017-09-28T19:54:58.212Z,7.00
2017-09-28T19:57:26.563Z,6.10
2017-09-28T19:59:54.947Z,7.13
2017-09-28T20:02:24.735Z,7.60
2017-09-28T20:04:53.120Z,6.53
2017-09-28T20:07:22.320Z,5.97
2017-09-28T20:09:51.379Z,7.30
2017-09-28T20:12:20.479Z,6.97
2017-09-28T20:14:50.327Z,7.70
2017-09-28T20:17:18.606Z,8.47
2017-09-28T20:19:46.899Z,9.90
2017-09-28T20:22:16.691Z,9.40
2017-09-28T20:24:44.845Z,9.27
2017-09-28T20:27:13.935Z,9.60
2017-09-28T20:29:42.555Z,9.77
2017-09-28T20:32:11.723Z,9.93
2017-09-28T20:34:40.176Z,9.63
2017-09-28T20:37:09.862Z,10.43
2017-09-28T20:39:38.412Z,9.40
2017-09-28T20:42:07.914Z,10.03
2017-09-28T20:44:36.704Z,10.30
2017-09-28T20:47:05.100Z,10.70
2017-09-28T20:49:34.435Z,10.30
2017-09-28T20:52:04.383Z,10.23
2017-09-28T20:54:32.832Z,10.33
2017-09-28T20:57:02.333Z,9.93
2017-09-28T20:59:32.020Z,10.30
2017-09-28T21:02:01.024Z,9.80
2017-09-28T21:04:29.708Z,9.80
2017-09-28T21:06:58.927Z,10.73
2017-09-28T21:09:27.239Z,10.80
2017-09-28T21:11:55.523Z,8.60
2017-09-28T21:14:24.290Z,8.70
2017-09-28T21:16:53.754Z,7.70
2017-09-28T21:19:22.119Z,9.00
2017-09-28T21:21:50.448Z,10.03
2017-09-28T21:24:19.513Z,8.53
2017-09-28T21:26:47.847Z,9.47
2017-09-28T21:29:17.703Z,10.30
2017-09-28T21:31:46.039Z,10.57
2017-09-28T21:34:14.331Z,9.80
2017-09-28T21:36:43.060Z,10.53
2017-09-28T21:39:12.483Z,11.03
2017-09-28T21:41:40.781Z,9.77
2017-09-28T21:44:09.132Z,9.83
2017-09-28T21:46:37.413Z,11.03
2017-09-28T21:49:05.899Z,11.20
2017-09-28T21:51:35.245Z,10.60
2017-09-28T21:54:03.580Z,11.23
2017-09-28T21:56:33.376Z,11.97
2017-09-28T21:59:01.794Z,10.77
2017-09-28T22:01:30.129Z,11.83
2017-09-28T22:03:58.440Z,12.50
2017-09-28T22:06:27.631Z,12.13
2017-09-28T22:08:55.989Z,13.07
2017-09-28T22:11:24.675Z,12.33
2017-09-28T22:13:54.208Z,11.50
2017-09-28T22:16:23.999Z,11.40
2017-09-28T22:18:52.363Z,9.80
2017-09-28T22:21:20.703Z,11.17
2017-09-28T22:23:50.496Z,9.30
2017-09-28T22:26:19.190Z,9.10
2017-09-28T22:28:47.543Z,11.37
2017-09-28T22:31:16.667Z,12.23
2017-09-28T22:33:44.956Z,10.40
2017-09-28T22:36:13.298Z,10.23
2017-09-28T22:38:42.361Z,10.83
2017-09-28T22:41:11.780Z,11.80
2017-09-28T22:43:40.137Z,10.87
2017-09-28T22:46:08.463Z,10.23
2017-09-28T22:48:37.626Z,11.50
2017-09-28T22:51:06.715Z,12.37
2017-09-28T22:53:35.779Z,11.10
2017-09-28T22:56:04.058Z,11.47
2017-09-28T22:58:32.408Z,10.03
2017-09-28T23:01:01.856Z,10.67
2017-09-28T23:03:31.020Z,11.03
2017-09-28T23:06:00.135Z,11.87
2017-09-28T23:08:28.451Z,12.00
2017-09-28T23:10:56.905Z,11.00
2017-09-28T23:13:25.448Z,10.77
2017-09-28T23:15:53.791Z,11.70
2017-09-28T23:18:23.218Z,9.97
2017-09-28T23:20:51.603Z,12.50
2017-09-28T23:23:19.937Z,10.63
2017-09-28T23:25:48.318Z,11.07
2017-09-28T23:28:18.151Z,11.43
2017-09-28T23:30:47.868Z,11.33
2017-09-28T23:33:17.377Z,11.90
2017-09-28T23:35:45.586Z,11.60
2017-09-28T23:38:15.237Z,10.50
2017-09-28T23:40:43.791Z,10.80
2017-09-28T23:43:13.475Z,12.40
2017-09-28T23:45:42.039Z,10.70
2017-09-28T23:48:10.328Z,11.70
2017-09-28T23:50:38.884Z,12.73
2017-09-28T23:53:07.166Z,12.60
2017-09-28T23:55:35.451Z,14.40
2017-09-28T23:58:05.019Z,13.07
